Time;durP1;ratioP1;P1;durP2;ratioP2;P2;SDS_P1;SDS_P2;PMS_P1;PMS_P2;Temp;Humidity;BMP_temperature;BMP_pressure;BME280_temperature;BME280_humidity;BME280_pressure;Samples;Min_cycle;Max_cycle;Signal;HPM_P1;HPM_P2
2022/08/12 00:44:28;;;;;;;5.8;3.8;;;;;;;15.94;75.92871;939.6531;;;;
2022/08/12 00:46:53;;;;;;;5.2;3.9;;;;;;;15.72;77.02344;939.5817;;;;
2022/08/12 00:49:18;;;;;;;4.4;4;;;;;;;15.75;76.95898;939.5533;;;;
2022/08/12 00:54:08;;;;;;;4.6;4;;;;;;;15.58;77.81836;939.5765;;;;
2022/08/12 01:00:14;;;;;;;4.8;3.9;;;;;;;15.32;79.2832;939.4241;;;;
2022/08/12 01:02:39;;;;;;;5.2;3.7;;;;;;;15.39;79.18164;939.511;;;;
2022/08/12 01:12:24;;;;;;;5.2;4;;;;;;;15.23;79.47363;939.5145;;;;
2022/08/12 01:14:52;;;;;;;6.5;4.5;;;;;;;15.28;79.50586;939.5287;;;;
2022/08/12 01:22:24;;;;;;;5.8;3.8;;;;;;;15.14;79.85254;939.4619;;;;
2022/08/12 01:24:47;;;;;;;4.3;3.9;;;;;;;15.1;79.71582;939.4637;;;;
2022/08/12 01:27:18;;;;;;;5;4;;;;;;;14.83;80.89063;939.4561;;;;
2022/08/12 01:29:43;;;;;;;4.4;4;;;;;;;14.96;80.25781;939.3631;;;;
2022/08/12 01:32:09;;;;;;;5.3;4.2;;;;;;;14.79;81.14746;939.3967;;;;
2022/08/12 01:34:35;;;;;;;4.5;4.1;;;;;;;14.99;80.23828;939.4031;;;;
2022/08/12 01:36:58;;;;;;;5.6;3.7;;;;;;;15.15;79.44824;939.4594;;;;
2022/08/12 01:39:28;;;;;;;4.4;3.9;;;;;;;15.18;79.10742;939.387;;;;
2022/08/12 01:45:00;;;;;;;5.7;4;;;;;;;15;79.50293;939.452;;;;
2022/08/12 01:47:29;;;;;;;4.5;4.1;;;;;;;14.95;79.74707;939.4009;;;;
2022/08/12 01:50:22;;;;;;;4.3;3.9;;;;;;;14.93;79.92676;939.4003;;;;
2022/08/12 01:53:10;;;;;;;4.6;4;;;;;;;14.72;80.61523;939.3738;;;;
2022/08/12 01:55:36;;;;;;;4.9;4.1;;;;;;;14.47;81.79102;939.4322;;;;
2022/08/12 01:57:59;;;;;;;5.7;4;;;;;;;14.56;81.41602;939.3525;;;;
2022/08/12 02:00:24;;;;;;;4.4;4;;;;;;;14.63;81.29102;939.3967;;;;
2022/08/12 02:02:53;;;;;;;6.3;4.6;;;;;;;14.66;80.87012;939.4094;;;;
2022/08/12 02:12:40;;;;;;;4.6;3.7;;;;;;;14.41;81.74609;939.3942;;;;
2022/08/12 02:15:05;;;;;;;4.4;4;;;;;;;14.55;81.11621;939.3774;;;;
2022/08/12 02:17:31;;;;;;;4.7;3.9;;;;;;;14.61;80.86035;939.3676;;;;
2022/08/12 02:19:59;;;;;;;6.6;4.4;;;;;;;14.55;81.15137;939.3133;;;;
2022/08/12 02:22:28;;;;;;;6.3;3.8;;;;;;;14.62;80.59863;939.2974;;;;
2022/08/12 02:24:55;;;;;;;4.7;4;;;;;;;14.54;80.75586;939.2148;;;;
2022/08/12 02:27:21;;;;;;;5.1;4.2;;;;;;;14.26;81.95996;939.128;;;;
2022/08/12 02:29:47;;;;;;;4.9;4.2;;;;;;;14.11;82.47168;939.0584;;;;
2022/08/12 02:32:19;;;;;;;4.7;4.1;;;;;;;14.2;81.74023;939.0189;;;;
2022/08/12 02:34:37;;;;;;;4.7;4.3;;;;;;;14.09;82.08984;939.0248;;;;
2022/08/12 02:37:02;;;;;;;4.8;4.4;;;;;;;13.76;84.17871;938.9073;;;;
2022/08/12 02:39:27;;;;;;;5;4;;;;;;;;;;;;;
2022/08/12 02:41:52;;;;;;;6.5;4.3;;;;;;;;;;;;;
2022/08/12 02:44:17;;;;;;;5;4.3;;;;;;;;;;;;;
2022/08/12 02:46:43;;;;;;;5.2;4.2;;;;;;;;;;;;;
2022/08/12 02:49:08;;;;;;;6.7;4.3;;;;;;;;;;;;;
2022/08/12 02:51:35;;;;;;;5.2;4.5;;;;;;;;;;;;;
2022/08/12 02:53:59;;;;;;;5.4;4.3;;;;;;;;;;;;;
2022/08/12 02:56:26;;;;;;;4.3;3.9;;;;;;;;;;;;;
2022/08/12 02:58:50;;;;;;;5.6;4;;;;;;;;;;;;;
2022/08/12 03:01:16;;;;;;;6.1;4;;;;;;;;;;;;;
2022/08/12 03:03:40;;;;;;;5.8;4;;;;;;;;;;;;;
2022/08/12 03:06:05;;;;;;;5.8;4.3;;;;;;;;;;;;;
2022/08/12 03:08:31;;;;;;;5.8;4.1;;;;;;;;;;;;;
2022/08/12 03:10:56;;;;;;;6.3;3.9;;;;;;;;;;;;;
2022/08/12 03:13:21;;;;;;;6;3.8;;;;;;;;;;;;;
2022/08/12 03:15:49;;;;;;;5.7;4.3;;;;;;;;;;;;;
2022/08/12 03:18:13;;;;;;;4.4;4;;;;;;;;;;;;;
2022/08/12 03:20:39;;;;;;;4.8;4.3;;;;;;;;;;;;;
2022/08/12 03:23:04;;;;;;;6;4.1;;;;;;;;;;;;;
2022/08/12 03:25:29;;;;;;;4.7;4.1;;;;;;;;;;;;;
2022/08/12 03:27:56;;;;;;;4.6;4.1;;;;;;;;;;;;;
2022/08/12 03:30:19;;;;;;;5.2;3.9;;;;;;;;;;;;;
2022/08/12 03:32:45;;;;;;;4.6;4.2;;;;;;;;;;;;;
2022/08/12 03:35:11;;;;;;;6.8;4.6;;;;;;;;;;;;;
2022/08/12 03:37:36;;;;;;;6.1;4.4;;;;;;;;;;;;;
2022/08/12 03:40:01;;;;;;;6;4.8;;;;;;;;;;;;;
2022/08/12 03:42:27;;;;;;;5.7;4.2;;;;;;;;;;;;;
2022/08/12 04:02:38;;;;;;;5.2;4.4;;;;;;;13.56;83.85059;939.0355;;;;
2022/08/12 04:05:03;;;;;;;5.2;4.3;;;;;;;13.75;82.73535;939.0339;;;;
2022/08/12 04:07:28;;;;;;;8;4.2;;;;;;;13.62;83.32227;939.0508;;;;
2022/08/12 04:09:53;;;;;;;4.8;4.2;;;;;;;13.44;84.09277;939.0035;;;;
2022/08/12 04:14:47;;;;;;;7;4;;;;;;;13.64;83.52148;939.0541;;;;
2022/08/12 04:17:18;;;;;;;4.8;4.4;;;;;;;13.72;83.15723;939.0891;;;;
2022/08/12 04:19:45;;;;;;;7.3;4.3;;;;;;;13.86;82.35449;939.1141;;;;
2022/08/12 04:22:11;;;;;;;5.2;4.2;;;;;;;13.91;82.00879;939.1379;;;;
2022/08/12 04:24:34;;;;;;;5.5;4.5;;;;;;;13.91;81.9834;939.0939;;;;
2022/08/12 04:26:59;;;;;;;6.9;4.4;;;;;;;13.92;81.97559;939.0859;;;;
2022/08/12 04:29:25;;;;;;;6.4;4.6;;;;;;;13.95;81.9707;939.0978;;;;
2022/08/12 04:31:51;;;;;;;6.2;4.6;;;;;;;13.96;81.67383;939.117;;;;
2022/08/12 04:34:20;;;;;;;5.6;4.5;;;;;;;13.95;81.58984;939.1515;;;;
2022/08/12 04:36:44;;;;;;;5.3;4.8;;;;;;;13.97;80.91602;939.0737;;;;
2022/08/12 04:39:13;;;;;;;4.5;4;;;;;;;14;81.11621;939.0577;;;;
2022/08/12 04:41:39;;;;;;;7.6;4.7;;;;;;;13.66;82.50293;939.0684;;;;
2022/08/12 04:44:09;;;;;;;5.9;4.4;;;;;;;13.77;82.00586;939.1035;;;;
2022/08/12 04:46:38;;;;;;;5.2;4.2;;;;;;;13.87;81.67773;939.0812;;;;
2022/08/12 04:49:05;;;;;;;5.1;4.4;;;;;;;13.93;81.60742;939.0939;;;;
2022/08/12 04:51:38;;;;;;;7.3;4.2;;;;;;;13.84;81.78906;939.0396;;;;
2022/08/12 04:54:10;;;;;;;9;4.4;;;;;;;13.92;81.27344;939.0483;;;;
2022/08/12 04:56:41;;;;;;;7.1;4.4;;;;;;;13.94;81.19824;939.0762;;;;
2022/08/12 04:59:11;;;;;;;7.8;4.3;;;;;;;14;81.20801;939.0857;;;;
2022/08/12 05:01:36;;;;;;;7.7;4.5;;;;;;;13.96;81.01563;939.0818;;;;
2022/08/12 05:04:02;;;;;;;4.6;4.2;;;;;;;13.93;81.27539;939.0987;;;;
2022/08/12 05:06:29;;;;;;;7.5;4.2;;;;;;;13.99;81.43848;939.1185;;;;
2022/08/12 05:08:55;;;;;;;4.8;4.2;;;;;;;14.09;81.21484;939.0842;;;;
2022/08/12 05:11:20;;;;;;;7.6;5;;;;;;;14.06;81.10352;939.1411;;;;
2022/08/12 05:13:45;;;;;;;6.7;4.3;;;;;;;14.2;80.7373;939.1872;;;;
2022/08/12 05:16:10;;;;;;;10.5;4.5;;;;;;;14.24;80.22852;939.1617;;;;
2022/08/12 05:18:38;;;;;;;7.5;4.5;;;;;;;14.33;79.99023;939.2503;;;;
2022/08/12 05:21:03;;;;;;;5.5;4.3;;;;;;;14.33;79.71387;939.1461;;;;
2022/08/12 05:28:54;;;;;;;6.7;4.5;;;;;;;14.33;80.60059;939.2744;;;;
2022/08/12 05:31:25;;;;;;;5.3;4;;;;;;;14.44;79.50293;939.2713;;;;
2022/08/12 05:33:56;;;;;;;5.4;4;;;;;;;14.63;79.65527;939.2668;;;;
2022/08/12 05:36:28;;;;;;;6.7;4.2;;;;;;;14.84;78.4707;939.2949;;;;
2022/08/12 05:39:00;;;;;;;4.9;3.8;;;;;;;15.31;77.98926;939.2388;;;;
2022/08/12 05:41:26;;;;;;;4.7;3.3;;;;;;;16.81;71.93164;939.1547;;;;
2022/08/12 05:43:53;;;;;;;5.2;3.2;;;;;;;18.26;67.41602;939.1216;;;;
2022/08/12 05:46:19;;;;;;;4.2;2.9;;;;;;;19.4;61.54395;939.205;;;;
2022/08/12 05:48:45;;;;;;;4.8;3.4;;;;;;;19.17;63.45605;939.235;;;;
2022/08/12 05:51:10;;;;;;;4.8;2.9;;;;;;;19.13;63.62598;939.1722;;;;
2022/08/12 05:53:38;;;;;;;4.4;3;;;;;;;20.5;58.70703;939.1359;;;;
2022/08/12 05:56:03;;;;;;;4.3;3.1;;;;;;;21.27;55.19336;939.1008;;;;
2022/08/12 05:58:31;;;;;;;4.4;2.9;;;;;;;20.95;56.41699;939.1165;;;;
2022/08/12 06:00:57;;;;;;;4.3;2.7;;;;;;;21.91;53.5625;939.1233;;;;
2022/08/12 06:03:26;;;;;;;3;2.7;;;;;;;21.34;55.56445;939.1149;;;;
2022/08/12 06:05:55;;;;;;;3.9;3.1;;;;;;;19.87;61.76074;939.1539;;;;
2022/08/12 06:08:18;;;;;;;3.8;3.3;;;;;;;20.42;60.86719;939.1049;;;;
2022/08/12 06:10:44;;;;;;;3.7;2.7;;;;;;;21.19;57.11426;939.079;;;;
2022/08/12 06:13:13;;;;;;;3.9;3.2;;;;;;;20.82;59.24023;939.0789;;;;
2022/08/12 06:15:39;;;;;;;4.8;3.4;;;;;;;20.93;58.02734;939.1309;;;;
2022/08/12 06:18:07;;;;;;;5;3.2;;;;;;;21.54;56.55078;939.1533;;;;
2022/08/12 06:21:06;;;;;;;3.9;3.1;;;;;;;21.61;56.35938;939.1351;;;;
2022/08/12 06:23:32;;;;;;;5;3;;;;;;;22.32;53.9873;939.1211;;;;
2022/08/12 06:25:57;;;;;;;4.3;3.5;;;;;;;22.28;53.75977;939.0575;;;;
2022/08/12 06:28:22;;;;;;;4.1;3.1;;;;;;;21.85;54.39844;939.0848;;;;
2022/08/12 06:30:52;;;;;;;3.4;3.1;;;;;;;20.98;56.50195;939.0801;;;;
2022/08/12 06:33:20;;;;;;;4.1;3.2;;;;;;;21.58;55.4082;939.0653;;;;
2022/08/12 06:35:45;;;;;;;3.4;3.1;;;;;;;23.39;51.66016;939.1072;;;;
2022/08/12 06:38:14;;;;;;;4.2;3.2;;;;;;;24.64;46.99512;939.032;;;;
2022/08/12 06:43:04;;;;;;;3.7;2.7;;;;;;;27.69;41.53516;939.008;;;;
2022/08/12 06:45:28;;;;;;;4.1;2.7;;;;;;;27.41;40.47656;938.9915;;;;
2022/08/12 06:47:58;;;;;;;2.8;2.6;;;;;;;27.86;39.27051;938.9174;;;;
2022/08/12 06:50:20;;;;;;;2.9;2.6;;;;;;;27.65;39.88184;938.9888;;;;
2022/08/12 06:52:50;;;;;;;3.9;2.7;;;;;;;29;38.48926;938.9853;;;;
2022/08/12 06:55:19;;;;;;;2.5;2.3;;;;;;;30.03;35.65332;938.9333;;;;
2022/08/12 06:57:40;;;;;;;2.9;2.4;;;;;;;28.73;37.19238;939.0123;;;;
2022/08/12 07:00:07;;;;;;;4.4;2.6;;;;;;;30.35;35.89355;938.9749;;;;
2022/08/12 07:02:32;;;;;;;4.8;2.5;;;;;;;30.14;37.19043;938.994;;;;
2022/08/12 07:04:58;;;;;;;3.4;2.6;;;;;;;31.23;34.06055;938.9874;;;;
2022/08/12 07:07:24;;;;;;;3.2;2.3;;;;;;;31.14;34.3418;938.9977;;;;
2022/08/12 07:09:50;;;;;;;2.4;2.2;;;;;;;29.25;37.34277;938.9578;;;;
2022/08/12 07:12:18;;;;;;;2.8;2.5;;;;;;;29.32;39.40918;938.9612;;;;
2022/08/12 07:14:40;;;;;;;3.9;2.4;;;;;;;30.93;33.87109;938.9272;;;;
2022/08/12 07:17:11;;;;;;;4.7;2.4;;;;;;;29.99;35.60254;938.8691;;;;
2022/08/12 07:19:35;;;;;;;3.6;2.6;;;;;;;29.52;36.36328;938.8778;;;;
2022/08/12 07:22:05;;;;;;;2.3;2.1;;;;;;;28.01;39.59277;938.9595;;;;
2022/08/12 07:24:26;;;;;;;3.7;2.4;;;;;;;28.89;38.05078;938.9995;;;;
2022/08/12 07:26:55;;;;;;;3.7;2.7;;;;;;;30.57;33.56934;938.9217;;;;
2022/08/12 07:29:21;;;;;;;4.7;2.6;;;;;;;30.53;33.53125;938.8953;;;;
2022/08/12 07:31:50;;;;;;;3.1;2.3;;;;;;;28.71;37.39355;938.9211;;;;
2022/08/12 07:34:15;;;;;;;3.8;2.4;;;;;;;29.93;36.44531;938.8494;;;;
2022/08/12 07:36:46;;;;;;;3;2;;;;;;;29;36.69141;938.7935;;;;
2022/08/12 07:39:13;;;;;;;2.2;2.1;;;;;;;29.8;36.57715;938.8734;;;;
2022/08/12 07:41:38;;;;;;;4.5;2.2;;;;;;;30.25;35.15723;938.84;;;;
2022/08/12 07:44:07;;;;;;;2.3;2.1;;;;;;;30.22;36.44434;938.8578;;;;
2022/08/12 07:46:33;;;;;;;3.1;2.3;;;;;;;30.65;34.51855;938.8865;;;;
2022/08/12 07:49:02;;;;;;;4.4;2.4;;;;;;;29.94;34.62012;938.9035;;;;
2022/08/12 07:51:31;;;;;;;2.3;2.1;;;;;;;30.59;35.94824;938.921;;;;
2022/08/12 07:53:56;;;;;;;2.4;2.2;;;;;;;30.51;33.86328;938.8486;;;;
2022/08/12 07:56:22;;;;;;;2.5;2.3;;;;;;;29.75;36.97852;938.8035;;;;
2022/08/12 07:58:47;;;;;;;3.5;2.2;;;;;;;31.48;34.67773;938.8547;;;;
2022/08/12 08:01:16;;;;;;;2.5;2.2;;;;;;;31.31;35.26465;938.8538;;;;
2022/08/12 08:04:54;;;;;;;2.4;2.2;;;;;;;30.99;35.51367;938.7664;;;;
2022/08/12 08:06:07;;;;;;;3.2;2.1;;;;;;;30.81;35.93066;938.7452;;;;
2022/08/12 08:08:30;;;;;;;4;2.1;;;;;;;31.78;34.36621;938.7402;;;;
2022/08/12 08:12:52;;;;;;;2.4;2;;;;;;;32.25;34.15039;938.7068;;;;
2022/08/12 08:13:23;;;;;;;4.6;2.4;;;;;;;32.68;32.56152;938.7134;;;;
2022/08/12 08:15:55;;;;;;;3;2.3;;;;;;;33.12;31.74023;938.6202;;;;
2022/08/12 08:18:21;;;;;;;2.6;2.3;;;;;;;32.53;32.13184;938.6448;;;;
2022/08/12 08:20:46;;;;;;;3.1;2.3;;;;;;;30.41;35.44434;938.6461;;;;
2022/08/12 08:23:12;;;;;;;4;2.2;;;;;;;29.44;37.31055;938.6191;;;;
2022/08/12 08:25:37;;;;;;;2.2;2;;;;;;;32.55;31.60449;938.6481;;;;
2022/08/12 08:28:04;;;;;;;3.1;2;;;;;;;33.36;31.78027;938.6719;;;;
2022/08/12 08:30:29;;;;;;;3.6;2;;;;;;;33.9;30.66406;938.6575;;;;
2022/08/12 08:32:56;;;;;;;4;1.9;;;;;;;33.08;29.95996;938.6989;;;;
2022/08/12 08:35:21;;;;;;;2.2;1.8;;;;;;;32.64;32.4873;938.7205;;;;
2022/08/12 08:37:51;;;;;;;3.4;2;;;;;;;32.52;30.10254;938.7621;;;;
2022/08/12 08:42:48;;;;;;;2.4;1.9;;;;;;;30.6;35.25684;938.7609;;;;
2022/08/12 08:45:18;;;;;;;2.5;2;;;;;;;31.58;33.20215;938.7388;;;;
2022/08/12 08:47:43;;;;;;;1.9;1.8;;;;;;;30.17;35.1875;938.7037;;;;
2022/08/12 08:50:10;;;;;;;2.4;2.1;;;;;;;31.18;33.13672;938.7367;;;;
2022/08/12 08:55:54;;;;;;;3.3;2.1;;;;;;;33.14;31.16504;938.6506;;;;
2022/08/12 08:58:20;;;;;;;2.6;2;;;;;;;31.21;33.4375;938.7202;;;;
2022/08/12 09:00:48;;;;;;;2.3;2.1;;;;;;;30.7;33.58008;938.6871;;;;
2022/08/12 09:03:10;;;;;;;2;1.8;;;;;;;32.62;31.18945;938.6498;;;;
2022/08/12 09:05:35;;;;;;;2.1;1.9;;;;;;;32.55;30.41699;938.6563;;;;
2022/08/12 09:08:00;;;;;;;4.1;2.2;;;;;;;31.33;32.95605;938.7158;;;;
2022/08/12 09:10:29;;;;;;;2.9;2;;;;;;;29.89;36.37012;938.6125;;;;
2022/08/12 09:15:20;;;;;;;3;2;;;;;;;32.88;31.97559;938.567;;;;
2022/08/12 09:17:47;;;;;;;4.1;2;;;;;;;32.89;30.89551;938.5562;;;;
2022/08/12 09:20:12;;;;;;;2.1;1.9;;;;;;;32.71;31.61621;938.5369;;;;
2022/08/12 09:22:41;;;;;;;2.6;1.9;;;;;;;33.83;29.10742;938.5873;;;;
2022/08/12 09:25:06;;;;;;;3.3;1.8;;;;;;;33.5;30.84082;938.5176;;;;
2022/08/12 09:27:35;;;;;;;2.4;2.1;;;;;;;34.53;28.79004;938.499;;;;
2022/08/12 09:30:02;;;;;;;2.9;2;;;;;;;32.92;30.65723;938.4885;;;;
2022/08/12 09:32:31;;;;;;;3.2;2;;;;;;;31.34;34.27344;938.5392;;;;
2022/08/12 09:34:56;;;;;;;2.6;2.4;;;;;;;30.23;35.38281;938.4802;;;;
2022/08/12 09:37:27;;;;;;;5.1;1.9;;;;;;;28.7;37.09473;938.4512;;;;
2022/08/12 09:39:54;;;;;;;3.4;2.4;;;;;;;28.58;39.76074;938.4885;;;;
2022/08/12 09:51:01;;;;;;;2.8;2.1;;;;;;;29.05;37.98145;938.3361;;;;
2022/08/12 09:53:27;;;;;;;4;2.1;;;;;;;28;40.39941;938.3244;;;;
2022/08/12 09:55:56;;;;;;;2.9;2.1;;;;;;;29.12;36.32031;938.2874;;;;
2022/08/12 09:58:24;;;;;;;2.7;2.2;;;;;;;28.09;39.43262;938.2548;;;;
2022/08/12 10:00:46;;;;;;;4.1;2.1;;;;;;;26.77;41.38965;938.3464;;;;
2022/08/12 10:03:14;;;;;;;2.2;2;;;;;;;27.03;40.65527;938.3543;;;;
2022/08/12 10:05:38;;;;;;;4;1.7;;;;;;;27.73;38.41602;938.3638;;;;
2022/08/12 10:08:09;;;;;;;2.3;2.1;;;;;;;28.26;38.36621;938.2347;;;;
2022/08/12 10:10:31;;;;;;;4.5;2.1;;;;;;;27.36;39.90234;938.2784;;;;
2022/08/12 10:15:31;;;;;;;3.2;1.7;;;;;;;27.97;38.25781;938.187;;;;
2022/08/12 10:17:59;;;;;;;2.6;1.9;;;;;;;28.49;37.04297;938.198;;;;
2022/08/12 10:20:24;;;;;;;2.4;2.1;;;;;;;28.46;37.4082;938.1959;;;;
2022/08/12 10:22:50;;;;;;;2.5;1.9;;;;;;;26.69;39.02637;938.2164;;;;
2022/08/12 10:30:08;;;;;;;3;2.1;;;;;;;25.84;41.46973;938.0661;;;;
2022/08/12 10:32:37;;;;;;;3.3;2;;;;;;;26.49;40.77344;938.0656;;;;
2022/08/12 10:35:07;;;;;;;2.2;1.9;;;;;;;27.06;38.34668;938.0708;;;;
2022/08/12 10:38:01;;;;;;;6.1;2.2;;;;;;;27.53;39.15918;938.1503;;;;
2022/08/12 10:45:31;;;;;;;3.7;1.9;;;;;;;26.03;38.07031;937.9539;;;;
2022/08/12 10:48:00;;;;;;;2.5;1.7;;;;;;;26.4;37.9834;938.1024;;;;
2022/08/12 10:50:24;;;;;;;2.6;1.7;;;;;;;27.81;35.18164;937.9863;;;;
2022/08/12 10:52:52;;;;;;;2.6;1.9;;;;;;;28.01;36.15918;937.9615;;;;
2022/08/12 10:55:18;;;;;;;4.1;1.8;;;;;;;28.46;35.50586;937.8649;;;;
2022/08/12 10:57:45;;;;;;;2.6;1.8;;;;;;;27.81;36.66602;937.9626;;;;
2022/08/12 11:00:10;;;;;;;3.1;1.6;;;;;;;29.11;32.41309;937.8969;;;;
2022/08/12 11:02:39;;;;;;;4.6;1.7;;;;;;;29.23;33.54102;937.8602;;;;
2022/08/12 11:05:04;;;;;;;2.2;1.5;;;;;;;29.49;33.39355;937.8113;;;;
2022/08/12 11:07:34;;;;;;;2.2;1.7;;;;;;;29.22;32.08789;937.8081;;;;
2022/08/12 11:09:57;;;;;;;1.7;1.6;;;;;;;29.97;31.4248;937.8053;;;;
2022/08/12 11:12:28;;;;;;;3.3;1.7;;;;;;;30.52;30.65137;937.8218;;;;
2022/08/12 11:14:55;;;;;;;3.7;1.6;;;;;;;29.75;30.50391;937.728;;;;
2022/08/12 11:17:19;;;;;;;2.5;1.5;;;;;;;29.89;30.10742;937.8016;;;;
2022/08/12 11:19:44;;;;;;;5;1.5;;;;;;;28.99;32.92871;937.7524;;;;
2022/08/12 11:22:09;;;;;;;2.9;1.7;;;;;;;29.09;30.7334;937.7227;;;;
2022/08/12 11:24:34;;;;;;;5.4;1.9;;;;;;;28.74;32.60059;937.6831;;;;
2022/08/12 11:26:59;;;;;;;3;1.6;;;;;;;27.67;34.28027;937.718;;;;
2022/08/12 11:29:25;;;;;;;3.4;1.3;;;;;;;26.49;36.57031;937.7399;;;;
2022/08/12 11:31:51;;;;;;;1.9;1.7;;;;;;;26.24;36.84473;937.7706;;;;
2022/08/12 11:34:16;;;;;;;2.6;1.8;;;;;;;26.24;36.52637;937.7452;;;;
2022/08/12 11:36:41;;;;;;;3;1.8;;;;;;;26.83;37.35645;937.7489;;;;
2022/08/12 11:39:09;;;;;;;1.7;1.6;;;;;;;26.18;39.58496;937.8123;;;;
2022/08/12 11:41:37;;;;;;;4.2;1.8;;;;;;;26.12;36.9541;937.7797;;;;
2022/08/12 11:43:59;;;;;;;2.7;1.8;;;;;;;25.45;38.82422;937.8087;;;;
2022/08/12 11:46:27;;;;;;;3.1;1.7;;;;;;;25.8;37.10547;937.8345;;;;
2022/08/12 11:48:52;;;;;;;2.2;1.7;;;;;;;26.17;36.62598;937.8932;;;;
2022/08/12 11:51:21;;;;;;;2;1.6;;;;;;;25.8;38.73633;937.8705;;;;
2022/08/12 11:53:47;;;;;;;4.5;1.6;;;;;;;25.9;38.34277;937.8754;;;;
2022/08/12 11:56:12;;;;;;;2.1;1.5;;;;;;;26.16;39.14551;937.9075;;;;
2022/08/12 11:58:37;;;;;;;2.7;1.9;;;;;;;26.43;36.19824;937.8369;;;;
2022/08/12 12:01:05;;;;;;;3.8;1.8;;;;;;;26.1;36.7627;937.8519;;;;
2022/08/12 12:06:34;;;;;;;2;1.6;;;;;;;26.96;36.40723;937.8588;;;;
2022/08/12 12:08:59;;;;;;;2.1;1.6;;;;;;;26.98;35.88672;937.7876;;;;
2022/08/12 12:11:42;;;;;;;4.8;1.7;;;;;;;26.83;37.86523;937.7833;;;;
2022/08/12 12:14:13;;;;;;;3.9;1.9;;;;;;;25.95;38.46484;937.7712;;;;
2022/08/12 12:16:44;;;;;;;4.1;1.9;;;;;;;25.08;39.66504;937.7822;;;;
2022/08/12 12:19:16;;;;;;;2.9;1.7;;;;;;;25.48;38.61328;937.81;;;;
2022/08/12 12:21:39;;;;;;;2.8;1.7;;;;;;;25.95;39.11523;937.7875;;;;
2022/08/12 12:24:07;;;;;;;2.9;1.8;;;;;;;26.26;38.27832;937.8342;;;;
2022/08/12 12:26:32;;;;;;;2.2;1.8;;;;;;;26.12;38.11328;937.8237;;;;
2022/08/12 12:29:00;;;;;;;3;1.7;;;;;;;24.9;41.13574;937.7322;;;;
2022/08/12 12:31:25;;;;;;;2.4;1.7;;;;;;;24.66;42.28125;937.7828;;;;
2022/08/12 12:33:53;;;;;;;4;1.9;;;;;;;24.77;41.99609;937.6469;;;;
2022/08/12 12:36:19;;;;;;;5.7;1.7;;;;;;;24.73;41.36816;937.6418;;;;
2022/08/12 12:38:45;;;;;;;2.2;1.6;;;;;;;25.01;42.92676;937.7142;;;;
2022/08/12 12:41:11;;;;;;;2.4;1.7;;;;;;;25.41;39.74219;937.7371;;;;
2022/08/12 12:43:39;;;;;;;2.4;1.7;;;;;;;25.79;38.77051;937.6758;;;;
2022/08/12 12:46:05;;;;;;;2.5;1.7;;;;;;;26.29;37.83203;937.606;;;;
2022/08/12 12:48:34;;;;;;;3.8;1.8;;;;;;;25.9;38.99219;937.6316;;;;
2022/08/12 12:51:17;;;;;;;1.9;1.5;;;;;;;25.63;38.25;937.5856;;;;
2022/08/12 12:53:25;;;;;;;1.7;1.6;;;;;;;25.9;37.33789;937.6492;;;;
2022/08/12 12:55:50;;;;;;;3;1.7;;;;;;;26.12;36.16113;937.6392;;;;
2022/08/12 12:58:16;;;;;;;3;1.4;;;;;;;26.26;36.76465;937.5873;;;;
2022/08/12 13:00:44;;;;;;;4.4;1.9;;;;;;;26.79;35.9668;937.4992;;;;
2022/08/12 13:03:09;;;;;;;3.1;1.6;;;;;;;26.78;38.38281;937.5161;;;;
2022/08/12 13:05:37;;;;;;;2.3;1.6;;;;;;;27.04;35.28711;937.5447;;;;
2022/08/12 13:08:06;;;;;;;3.6;1.7;;;;;;;27.13;35.55566;937.6008;;;;
2022/08/12 13:10:31;;;;;;;1.7;1.6;;;;;;;27.27;34.74805;937.562;;;;
2022/08/12 13:13:01;;;;;;;2.2;1.6;;;;;;;27.04;34.9082;937.5308;;;;
2022/08/12 13:15:25;;;;;;;3.6;1.7;;;;;;;27.18;38.29785;937.5319;;;;
2022/08/12 13:17:50;;;;;;;2.6;1.7;;;;;;;27.21;37.875;937.4727;;;;
2022/08/12 13:20:19;;;;;;;1.9;1.4;;;;;;;27.37;35.78711;937.4348;;;;
2022/08/12 13:22:47;;;;;;;2.4;1.5;;;;;;;27.5;34.77734;937.4136;;;;
2022/08/12 13:25:13;;;;;;;2.6;1.5;;;;;;;27.72;35.05566;937.4227;;;;
2022/08/12 13:27:42;;;;;;;3.9;1.7;;;;;;;27.79;34.4082;937.4031;;;;
2022/08/12 13:30:08;;;;;;;3.5;1.9;;;;;;;28.1;36.03613;937.3892;;;;
2022/08/12 13:32:36;;;;;;;2.2;1.7;;;;;;;27.56;36.97754;937.3226;;;;
2022/08/12 13:35:01;;;;;;;1.7;1.6;;;;;;;27.54;34.54395;937.3317;;;;
2022/08/12 13:37:31;;;;;;;3.6;1.6;;;;;;;27.56;34.95996;937.3039;;;;
2022/08/12 13:39:58;;;;;;;2.1;1.7;;;;;;;26.82;37.2959;937.3521;;;;
2022/08/12 13:42:23;;;;;;;2.1;1.3;;;;;;;26.98;35.55469;937.2654;;;;
2022/08/12 13:44:52;;;;;;;3.7;1.6;;;;;;;26.28;36.24512;937.3315;;;;
2022/08/12 13:47:16;;;;;;;1.9;1.6;;;;;;;26.57;35.9248;937.3094;;;;
2022/08/12 13:49:41;;;;;;;1.9;1.7;;;;;;;26.82;35.06836;937.2664;;;;
2022/08/12 13:52:08;;;;;;;2.1;1.8;;;;;;;26.65;35.16309;937.2445;;;;
2022/08/12 13:54:33;;;;;;;3.8;1.5;;;;;;;26.65;35.71875;937.2955;;;;
2022/08/12 13:57:00;;;;;;;1.5;1.4;;;;;;;26.36;35.08008;937.3406;;;;
2022/08/12 13:59:25;;;;;;;3.5;1.4;;;;;;;26.74;34.69434;937.2957;;;;
2022/08/12 14:01:50;;;;;;;1.4;1.3;;;;;;;26.95;34.21387;937.2904;;;;
2022/08/12 14:04:17;;;;;;;4;1.6;;;;;;;26.93;34.71094;937.3112;;;;
2022/08/12 14:06:42;;;;;;;1.8;1.6;;;;;;;27.04;34.80078;937.3081;;;;
2022/08/12 14:09:11;;;;;;;1.5;1.4;;;;;;;26.92;35.96484;937.3169;;;;
2022/08/12 14:11:36;;;;;;;2.2;1.8;;;;;;;27.04;35.66699;937.2764;;;;
2022/08/12 14:14:01;;;;;;;2.9;1.6;;;;;;;26.94;35.5166;937.2462;;;;
2022/08/12 14:16:28;;;;;;;3.2;1.9;;;;;;;26.74;36.38867;937.3234;;;;
2022/08/12 14:18:53;;;;;;;2.1;1.3;;;;;;;26.94;35.26758;937.2874;;;;
2022/08/12 14:21:20;;;;;;;4.4;1.7;;;;;;;26.99;34.37012;937.2698;;;;
2022/08/12 14:23:49;;;;;;;2;1.4;;;;;;;27.05;34.8623;937.2601;;;;
2022/08/12 14:26:10;;;;;;;3.4;1.4;;;;;;;27.18;35.35742;937.2506;;;;
2022/08/12 14:28:37;;;;;;;2.1;1.5;;;;;;;27.2;34.42285;937.2983;;;;
2022/08/12 14:31:03;;;;;;;2.3;1.3;;;;;;;27.16;35.71191;937.2271;;;;
2022/08/12 14:33:32;;;;;;;2.3;1.5;;;;;;;27.16;34.47949;937.245;;;;
2022/08/12 14:35:56;;;;;;;3.7;1.5;;;;;;;26.99;34.67871;937.2427;;;;
2022/08/12 14:38:24;;;;;;;1.6;1.2;;;;;;;27.12;34.00098;937.2293;;;;
2022/08/12 14:40:49;;;;;;;2.6;1.2;;;;;;;27.15;33.10254;937.2236;;;;
2022/08/12 14:43:15;;;;;;;2;1.3;;;;;;;27.22;33.17871;937.231;;;;
2022/08/12 14:45:41;;;;;;;1.2;1.1;;;;;;;27.24;32.83594;937.1428;;;;
2022/08/12 14:48:08;;;;;;;2.2;1.5;;;;;;;27.07;33.28613;937.226;;;;
2022/08/12 14:50:34;;;;;;;3.8;1.5;;;;;;;27.07;34.42383;937.1932;;;;
2022/08/12 14:52:59;;;;;;;1.5;1.2;;;;;;;27.1;35.43457;937.3106;;;;
2022/08/12 14:55:32;;;;;;;3.1;1.5;;;;;;;27;35.34277;937.2786;;;;
2022/08/12 14:58:01;;;;;;;2.5;1.3;;;;;;;27.07;35.63281;937.3123;;;;
2022/08/12 15:02:58;;;;;;;3;1.5;;;;;;;26.9;34.7793;937.3439;;;;
2022/08/12 15:05:23;;;;;;;2.2;1.3;;;;;;;26.93;33.48828;937.3226;;;;
2022/08/12 15:07:51;;;;;;;1.5;1.4;;;;;;;26.98;33.31445;937.343;;;;
2022/08/12 15:10:17;;;;;;;1.1;1;;;;;;;26.96;33.51465;937.349;;;;
2022/08/12 15:12:44;;;;;;;1.9;1.2;;;;;;;27.05;34.26758;937.2548;;;;
2022/08/12 15:15:09;;;;;;;1.3;1.2;;;;;;;26.8;34.39258;937.2921;;;;
2022/08/12 15:17:34;;;;;;;1.7;1.1;;;;;;;26.8;35.17383;937.3019;;;;
2022/08/12 15:20:01;;;;;;;2.9;1.2;;;;;;;26.8;34.15527;937.3264;;;;
2022/08/12 15:22:26;;;;;;;3;1.3;;;;;;;26.84;34.18164;937.3237;;;;
2022/08/12 15:24:53;;;;;;;1.2;1;;;;;;;26.88;34.33887;937.2665;;;;
2022/08/12 15:27:18;;;;;;;1.5;1.1;;;;;;;26.93;34.38965;937.3;;;;
2022/08/12 15:29:45;;;;;;;1.2;1;;;;;;;26.79;33.94043;937.3353;;;;
2022/08/12 15:32:11;;;;;;;1.7;1.3;;;;;;;26.53;34.11035;937.3394;;;;
2022/08/12 15:34:37;;;;;;;1.4;1.2;;;;;;;26.29;35.2168;937.3695;;;;
2022/08/12 15:37:02;;;;;;;1;1;;;;;;;26.12;35.29785;937.3454;;;;
2022/08/12 15:39:28;;;;;;;1.4;1.2;;;;;;;25.85;35.60742;937.3633;;;;
2022/08/12 15:41:53;;;;;;;1.8;1.2;;;;;;;25.89;35.35059;937.3784;;;;
2022/08/12 15:44:24;;;;;;;2.1;1;;;;;;;25.82;34.64746;937.4077;;;;
2022/08/12 15:46:48;;;;;;;1.9;1.1;;;;;;;25.52;34.9668;937.3817;;;;
2022/08/12 15:49:16;;;;;;;1;0.9;;;;;;;25.66;33.83105;937.3855;;;;
2022/08/12 15:51:41;;;;;;;2.3;1.2;;;;;;;25.68;35.51074;937.366;;;;
2022/08/12 15:54:06;;;;;;;2.3;1.3;;;;;;;25.9;35.12598;937.3753;;;;
2022/08/12 15:56:36;;;;;;;1.3;1.2;;;;;;;25.89;36.27344;937.4249;;;;
2022/08/12 15:58:59;;;;;;;1.5;1;;;;;;;25.63;35.98047;937.3754;;;;
2022/08/12 16:01:30;;;;;;;1.3;1.1;;;;;;;25.73;36.01074;937.4589;;;;
2022/08/12 16:03:59;;;;;;;1.8;1.4;;;;;;;25.61;36.0498;937.4178;;;;
2022/08/12 16:06:24;;;;;;;1.7;1.2;;;;;;;25.5;38.04883;937.3547;;;;
2022/08/12 16:08:50;;;;;;;2.7;1.4;;;;;;;25.67;36.85742;937.4191;;;;
2022/08/12 16:11:20;;;;;;;3.1;1.3;;;;;;;25.5;37.54102;937.4141;;;;
2022/08/12 16:13:40;;;;;;;1.4;1.3;;;;;;;25.49;37.01953;937.3519;;;;
2022/08/12 16:16:11;;;;;;;3.9;1.2;;;;;;;25.54;36.53906;937.3112;;;;
2022/08/12 16:18:37;;;;;;;1.2;1.1;;;;;;;25.4;35.98438;937.3016;;;;
2022/08/12 16:21:03;;;;;;;2.4;1.2;;;;;;;24.97;38.26367;937.2857;;;;
2022/08/12 16:23:28;;;;;;;2.1;1.2;;;;;;;25.26;37.68555;937.3378;;;;
2022/08/12 16:25:55;;;;;;;1.3;1.1;;;;;;;25.08;37.75293;937.3273;;;;
2022/08/12 16:28:21;;;;;;;1.9;1.2;;;;;;;25.27;37.03711;937.2558;;;;
2022/08/12 16:30:47;;;;;;;2.4;1.5;;;;;;;25.18;36.80566;937.2555;;;;
2022/08/12 16:33:13;;;;;;;1.3;1.1;;;;;;;25.28;36.8252;937.2256;;;;
2022/08/12 16:35:40;;;;;;;3.1;1.2;;;;;;;25.56;36.74219;937.3248;;;;
2022/08/12 16:38:05;;;;;;;2.3;1.1;;;;;;;25.51;36.65527;937.3011;;;;
2022/08/12 16:40:32;;;;;;;2;1.1;;;;;;;25.67;36.9043;937.2927;;;;
2022/08/12 16:43:00;;;;;;;3.5;1;;;;;;;25.88;35.58691;937.3239;;;;
2022/08/12 16:45:26;;;;;;;1.3;1.1;;;;;;;25.82;36.13672;937.2983;;;;
2022/08/12 16:47:52;;;;;;;2.5;1.4;;;;;;;25.77;35.51855;937.2836;;;;
2022/08/12 16:50:18;;;;;;;1.2;1.1;;;;;;;25.72;35.72656;937.3061;;;;
2022/08/12 16:52:46;;;;;;;2.5;1.1;;;;;;;25.66;35.81738;937.3086;;;;
2022/08/12 16:55:11;;;;;;;2.3;1.3;;;;;;;25.61;36.73438;937.2792;;;;
2022/08/12 16:57:44;;;;;;;2.9;1.4;;;;;;;25.43;37.25098;937.2242;;;;
2022/08/12 17:00:15;;;;;;;3;1.3;;;;;;;24.96;38.85156;937.3547;;;;